Time;durP1;ratioP1;P1;durP2;ratioP2;P2;SDS_P1;SDS_P2;PMS_P1;PMS_P2;Temp;Humidity;BMP_temperature;BMP_pressure;BME280_temperature;BME280_humidity;BME280_pressure;Samples;Min_cycle;Max_cycle;Signal;HPM_P1;HPM_P2
2021/07/15 00:01:24;;;;;;;1.23;0.52;;;17.70;99.90;;;;;;5063456;28;20485;-56
2021/07/15 00:03:49;;;;;;;0.60;0.50;;;17.70;99.90;;;;;;5060400;28;20542;-57
2021/07/15 00:06:15;;;;;;;1.30;0.57;;;17.70;99.90;;;;;;5066191;28;20483;-57
2021/07/15 00:08:44;;;;;;;0.60;0.53;;;17.60;99.90;;;;;;5069467;28;20193;-56
2021/07/15 00:11:12;;;;;;;0.73;0.52;;;17.80;99.90;;;;;;5065780;28;20212;-57
2021/07/15 00:13:39;;;;;;;0.65;0.60;;;17.60;99.90;;;;;;5061624;28;20204;-57
2021/07/15 00:16:08;;;;;;;2.00;0.60;;;17.60;99.90;;;;;;5061763;28;20185;-57
2021/07/15 00:18:38;;;;;;;0.60;0.50;;;17.50;99.90;;;;;;5061768;28;20693;-57
2021/07/15 00:21:08;;;;;;;0.60;0.50;;;17.40;99.90;;;;;;5051104;28;20311;-58
2021/07/15 00:23:34;;;;;;;1.05;0.50;;;17.40;99.90;;;;;;5055547;28;20174;-58
2021/07/15 00:26:01;;;;;;;1.53;0.60;;;17.40;99.90;;;;;;5062409;28;20220;-58
2021/07/15 00:28:28;;;;;;;1.10;0.60;;;17.60;99.90;;;;;;5059020;28;20439;-58
2021/07/15 00:30:54;;;;;;;0.60;0.50;;;17.30;99.90;;;;;;5064883;28;20220;-57
2021/07/15 00:33:19;;;;;;;0.90;0.53;;;17.30;99.90;;;;;;5057607;28;20173;-57
2021/07/15 00:35:45;;;;;;;0.70;0.50;;;17.20;99.90;;;;;;5061942;28;20716;-58
2021/07/15 00:38:10;;;;;;;0.70;0.50;;;17.30;99.90;;;;;;5060241;28;20189;-57
2021/07/15 00:40:38;;;;;;;1.07;0.50;;;17.10;99.90;;;;;;5059056;28;20582;-57
2021/07/15 00:43:03;;;;;;;1.02;0.50;;;17.00;99.90;;;;;;5066551;28;20183;-57
2021/07/15 00:45:30;;;;;;;0.60;0.43;;;17.00;99.90;;;;;;5067251;28;20205;-56
2021/07/15 00:47:56;;;;;;;0.60;0.50;;;17.20;99.90;;;;;;5058042;28;20941;-58
2021/07/15 00:50:23;;;;;;;0.60;0.45;;;17.10;99.90;;;;;;5058441;28;20204;-59
2021/07/15 00:52:50;;;;;;;2.55;0.50;;;17.00;99.90;;;;;;5058438;28;20185;-58
2021/07/15 00:55:24;;;;;;;1.27;0.50;;;17.10;99.90;;;;;;5064009;28;20193;-57
2021/07/15 00:57:50;;;;;;;0.68;0.50;;;17.00;99.90;;;;;;5060327;28;20541;-59
2021/07/15 01:00:16;;;;;;;0.60;0.50;;;17.20;99.90;;;;;;5063432;28;20204;-57
2021/07/15 01:02:42;;;;;;;0.77;0.55;;;16.90;99.90;;;;;;5059370;28;20193;-57
2021/07/15 01:05:11;;;;;;;0.90;0.60;;;16.70;99.90;;;;;;5057815;28;20227;-57
2021/07/15 01:07:38;;;;;;;0.60;0.50;;;16.90;99.90;;;;;;5064757;28;20181;-57
2021/07/15 01:10:05;;;;;;;1.95;0.60;;;16.70;99.90;;;;;;5065049;28;20209;-57
2021/07/15 01:12:57;;;;;;;2.75;0.60;;;16.90;99.90;;;;;;5052881;28;20566;-58
2021/07/15 01:15:26;;;;;;;0.60;0.50;;;16.30;99.90;;;;;;5058427;28;20188;-58
2021/07/15 01:18:15;;;;;;;1.52;0.60;;;16.60;99.90;;;;;;5067472;28;20213;-58
2021/07/15 01:21:17;;;;;;;2.17;0.50;;;16.90;99.90;;;;;;5055310;28;20264;-58
2021/07/15 01:24:20;;;;;;;0.60;0.40;;;16.90;99.90;;;;;;5054180;28;20193;-59
2021/07/15 01:27:23;;;;;;;0.70;0.60;;;16.90;99.90;;;;;;5064228;28;20205;-58
2021/07/15 01:30:12;;;;;;;0.60;0.50;;;16.80;99.90;;;;;;5061661;28;20734;-57
2021/07/15 01:33:03;;;;;;;0.52;0.40;;;16.70;99.90;;;;;;5058436;28;20779;-58
2021/07/15 01:35:41;;;;;;;0.70;0.50;;;16.50;99.90;;;;;;5055642;28;20193;-58
2021/07/15 01:38:08;;;;;;;0.70;0.50;;;16.50;99.90;;;;;;5066907;28;20176;-58
2021/07/15 01:40:51;;;;;;;0.60;0.47;;;16.50;99.90;;;;;;5062882;28;20700;-56
2021/07/15 01:43:40;;;;;;;2.25;0.50;;;16.50;99.90;;;;;;5059110;28;20672;-57
2021/07/15 01:46:06;;;;;;;0.60;0.50;;;16.50;99.90;;;;;;5056205;28;20205;-57
2021/07/15 01:48:32;;;;;;;0.60;0.40;;;16.70;99.90;;;;;;5053599;28;20205;-57
2021/07/15 01:50:59;;;;;;;1.70;0.60;;;16.40;99.90;;;;;;5054183;28;20225;-57
2021/07/15 01:53:25;;;;;;;0.70;0.60;;;16.40;99.90;;;;;;5055468;28;20181;-57
2021/07/15 01:55:52;;;;;;;0.80;0.80;;;16.30;99.90;;;;;;5061829;28;20544;-57
2021/07/15 01:58:18;;;;;;;0.60;0.40;;;16.10;99.90;;;;;;5066017;28;20450;-57
2021/07/15 02:00:46;;;;;;;0.60;0.50;;;16.40;99.90;;;;;;5069715;28;20212;-57
2021/07/15 02:03:14;;;;;;;1.02;0.57;;;16.20;99.90;;;;;;5063335;28;20662;-59
2021/07/15 02:05:42;;;;;;;0.80;0.50;;;16.20;99.90;;;;;;5065907;28;20269;-58
2021/07/15 02:08:09;;;;;;;0.60;0.50;;;16.20;99.90;;;;;;5071406;28;20272;-57
2021/07/15 02:10:36;;;;;;;0.82;0.40;;;16.20;99.90;;;;;;5061450;28;20197;-59
2021/07/15 02:13:03;;;;;;;1.50;0.43;;;16.10;99.90;;;;;;5068028;28;20572;-59
2021/07/15 02:15:29;;;;;;;0.60;0.50;;;16.20;99.90;;;;;;5060059;28;20189;-58
2021/07/15 02:17:56;;;;;;;0.82;0.50;;;16.30;99.90;;;;;;5066680;28;20194;-57
2021/07/15 02:20:23;;;;;;;1.60;0.50;;;16.20;99.90;;;;;;5066208;28;20358;-57
2021/07/15 02:22:49;;;;;;;0.60;0.50;;;15.70;99.90;;;;;;5066374;28;20197;-57
2021/07/15 02:25:16;;;;;;;0.70;0.40;;;16.10;99.90;;;;;;5068144;28;20212;-58
2021/07/15 02:27:45;;;;;;;0.80;0.50;;;16.20;99.90;;;;;;5067505;28;20197;-58
2021/07/15 02:30:14;;;;;;;0.60;0.50;;;15.90;99.90;;;;;;5063831;28;20338;-57
2021/07/15 02:32:44;;;;;;;1.05;0.45;;;16.10;99.90;;;;;;5061524;28;20227;-58
2021/07/15 02:35:14;;;;;;;0.95;0.50;;;15.90;99.90;;;;;;5063766;28;20199;-58
2021/07/15 02:37:41;;;;;;;0.60;0.50;;;15.90;99.90;;;;;;5067921;28;20181;-57
2021/07/15 02:40:13;;;;;;;0.52;0.40;;;16.00;99.90;;;;;;5064424;28;20235;-59
2021/07/15 02:42:41;;;;;;;1.45;0.60;;;16.20;99.90;;;;;;5065025;28;20181;-59
2021/07/15 02:45:11;;;;;;;0.80;0.50;;;16.10;99.90;;;;;;5059092;28;20559;-59
2021/07/15 02:47:42;;;;;;;0.60;0.40;;;16.20;99.90;;;;;;5061256;28;20594;-59
2021/07/15 02:50:09;;;;;;;0.60;0.43;;;16.30;99.90;;;;;;5063013;28;20617;-57
2021/07/15 02:52:35;;;;;;;1.70;0.60;;;16.00;99.90;;;;;;5066088;28;20204;-58
2021/07/15 02:55:00;;;;;;;0.60;0.40;;;15.90;99.90;;;;;;5070414;28;20184;-58
2021/07/15 02:57:44;;;;;;;0.63;0.63;;;16.40;99.90;;;;;;5061743;28;20439;-58
2021/07/15 03:00:13;;;;;;;0.80;0.50;;;16.40;99.90;;;;;;5066938;28;20566;-57
2021/07/15 03:02:46;;;;;;;0.70;0.50;;;16.30;99.90;;;;;;5060328;28;20186;-57
2021/07/15 03:05:21;;;;;;;2.17;0.43;;;16.30;99.90;;;;;;5057854;28;20295;-57
2021/07/15 03:07:55;;;;;;;1.23;0.43;;;16.50;99.90;;;;;;5062074;28;20177;-57
2021/07/15 03:10:21;;;;;;;0.75;0.50;;;16.60;99.90;;;;;;5053240;28;20254;-57
2021/07/15 03:12:49;;;;;;;0.90;0.68;;;16.50;99.90;;;;;;5059198;28;20650;-58
2021/07/15 03:15:14;;;;;;;0.60;0.45;;;16.50;99.90;;;;;;5062012;28;20188;-57
2021/07/15 03:17:48;;;;;;;0.70;0.60;;;16.40;99.90;;;;;;5058099;28;20192;-57
2021/07/15 03:20:31;;;;;;;1.70;0.52;;;16.50;99.90;;;;;;5053038;28;20696;-59
2021/07/15 03:23:01;;;;;;;2.67;0.50;;;16.00;99.90;;;;;;5066110;28;20231;-57
2021/07/15 03:25:28;;;;;;;0.93;0.40;;;16.50;99.90;;;;;;5066479;28;20196;-57
2021/07/15 03:27:56;;;;;;;0.60;0.50;;;16.70;99.90;;;;;;5068598;28;20201;-57
2021/07/15 03:30:25;;;;;;;1.90;0.50;;;16.50;99.90;;;;;;5064933;28;20250;-57
2021/07/15 03:32:51;;;;;;;0.68;0.40;;;16.40;99.90;;;;;;5055368;28;20184;-57
2021/07/15 03:35:18;;;;;;;0.60;0.50;;;16.50;99.90;;;;;;5061366;28;20204;-56
2021/07/15 03:37:47;;;;;;;0.60;0.50;;;16.50;99.90;;;;;;5061716;28;20193;-58
2021/07/15 03:40:15;;;;;;;2.08;0.50;;;16.50;99.90;;;;;;5061668;28;20213;-57
2021/07/15 03:42:41;;;;;;;0.57;0.40;;;16.50;99.90;;;;;;5064883;28;20721;-59
2021/07/15 03:45:09;;;;;;;0.60;0.40;;;16.60;99.90;;;;;;5064144;28;20237;-57
2021/07/15 03:47:36;;;;;;;0.80;0.40;;;16.70;99.90;;;;;;5057942;28;20443;-57
2021/07/15 03:50:03;;;;;;;1.20;0.50;;;16.60;99.90;;;;;;5064768;28;20300;-57
2021/07/15 03:52:29;;;;;;;0.60;0.50;;;16.60;99.90;;;;;;5059195;28;20186;-57
2021/07/15 03:54:57;;;;;;;1.27;0.50;;;16.70;99.90;;;;;;5063336;28;20250;-58
2021/07/15 03:57:25;;;;;;;1.27;0.60;;;16.80;99.90;;;;;;5064311;28;21006;-59
2021/07/15 03:59:52;;;;;;;0.63;0.50;;;16.90;99.90;;;;;;5060955;28;20201;-59
2021/07/15 04:02:21;;;;;;;0.68;0.50;;;17.00;99.90;;;;;;5057516;28;20794;-59
2021/07/15 04:04:52;;;;;;;1.35;0.60;;;17.00;99.90;;;;;;5053191;28;20182;-59
2021/07/15 04:07:18;;;;;;;0.77;0.63;;;16.90;99.90;;;;;;5065772;28;20559;-60
2021/07/15 04:09:46;;;;;;;1.27;0.60;;;16.70;99.90;;;;;;5054528;28;20682;-59
2021/07/15 04:12:12;;;;;;;1.98;0.80;;;16.80;99.90;;;;;;5059241;28;20189;-58
2021/07/15 04:14:50;;;;;;;0.70;0.70;;;17.00;99.90;;;;;;5054333;28;20184;-58
2021/07/15 04:17:17;;;;;;;0.70;0.50;;;16.80;99.90;;;;;;5054581;28;20173;-58
2021/07/15 04:19:44;;;;;;;0.80;0.60;;;16.90;99.90;;;;;;5062094;28;20205;-59
2021/07/15 04:22:12;;;;;;;1.77;0.60;;;16.80;99.90;;;;;;5055714;28;20186;-58
2021/07/15 04:24:40;;;;;;;0.82;0.50;;;17.00;99.90;;;;;;5063198;28;20185;-60
2021/07/15 04:27:07;;;;;;;0.60;0.40;;;17.10;99.90;;;;;;5059300;28;20181;-61
2021/07/15 04:29:35;;;;;;;0.60;0.40;;;17.10;99.90;;;;;;5063887;28;20232;-61
2021/07/15 04:32:04;;;;;;;5.82;0.80;;;17.00;99.90;;;;;;5066760;28;20262;-60
2021/07/15 04:34:32;;;;;;;0.68;0.60;;;17.00;99.90;;;;;;5065211;28;20678;-60
2021/07/15 04:36:58;;;;;;;0.68;0.45;;;16.70;99.90;;;;;;5056759;28;20192;-61
2021/07/15 04:39:26;;;;;;;0.93;0.80;;;17.30;99.90;;;;;;5061105;28;20201;-56
2021/07/15 04:41:56;;;;;;;1.33;0.50;;;17.20;99.90;;;;;;5058165;28;20198;-57
2021/07/15 04:44:24;;;;;;;1.10;0.80;;;17.30;99.90;;;;;;5057348;28;20188;-56
2021/07/15 04:46:51;;;;;;;1.50;0.70;;;17.40;99.90;;;;;;5058283;28;20216;-57
2021/07/15 04:49:20;;;;;;;0.93;0.70;;;17.50;99.90;;;;;;5061299;28;20199;-57
2021/07/15 04:51:46;;;;;;;2.97;0.60;;;17.30;99.90;;;;;;5065478;28;20177;-57
2021/07/15 04:54:14;;;;;;;1.83;0.70;;;17.10;99.90;;;;;;5061914;28;20188;-58
2021/07/15 04:56:41;;;;;;;0.70;0.50;;;17.30;99.90;;;;;;5051894;28;21007;-58
2021/07/15 04:59:07;;;;;;;0.80;0.60;;;17.30;99.90;;;;;;5060441;28;20697;-57
2021/07/15 05:01:35;;;;;;;0.70;0.60;;;17.40;99.90;;;;;;5055225;28;20543;-57
2021/07/15 05:04:01;;;;;;;0.80;0.60;;;17.10;99.90;;;;;;5059734;28;20246;-57
2021/07/15 05:06:26;;;;;;;0.88;0.70;;;17.30;99.90;;;;;;5056771;28;20209;-57
2021/07/15 05:08:52;;;;;;;0.80;0.50;;;17.40;99.90;;;;;;5054125;28;20231;-57
2021/07/15 05:11:18;;;;;;;0.90;0.60;;;17.10;99.90;;;;;;5063192;28;20188;-58
2021/07/15 05:13:44;;;;;;;1.77;0.80;;;17.50;99.90;;;;;;5062671;28;20256;-57
2021/07/15 05:16:09;;;;;;;1.57;0.70;;;17.30;99.90;;;;;;5060312;28;20188;-57
2021/07/15 05:18:36;;;;;;;0.80;0.73;;;17.40;99.90;;;;;;5061803;28;20457;-57
2021/07/15 05:21:03;;;;;;;1.55;0.73;;;17.50;99.90;;;;;;5062553;28;20240;-58
2021/07/15 05:23:29;;;;;;;1.25;0.50;;;17.60;99.90;;;;;;5058443;28;20189;-57
2021/07/15 05:25:56;;;;;;;1.93;0.63;;;17.80;99.90;;;;;;5051268;28;20677;-57
2021/07/15 05:28:23;;;;;;;0.90;0.60;;;17.70;99.90;;;;;;5054287;28;20272;-58
2021/07/15 05:30:49;;;;;;;3.33;0.73;;;17.60;99.90;;;;;;5057782;28;20599;-57
2021/07/15 05:33:14;;;;;;;1.30;0.80;;;17.40;99.90;;;;;;5062970;28;20193;-57
2021/07/15 05:35:42;;;;;;;0.90;0.60;;;17.70;99.90;;;;;;5061179;28;20457;-58
2021/07/15 05:38:08;;;;;;;1.67;0.50;;;17.80;99.90;;;;;;5067356;28;20191;-58
2021/07/15 05:40:34;;;;;;;1.30;0.80;;;17.90;99.90;;;;;;5055491;28;20193;-58
2021/07/15 05:43:00;;;;;;;3.63;3.20;;;17.80;99.90;;;;;;5060435;28;20191;-58
2021/07/15 05:45:26;;;;;;;1.00;0.70;;;17.80;99.90;;;;;;5066935;28;20975;-57
2021/07/15 05:47:51;;;;;;;0.90;0.70;;;17.90;99.90;;;;;;5064338;28;20199;-57
2021/07/15 05:50:17;;;;;;;1.20;1.10;;;18.00;99.90;;;;;;5054240;28;20459;-57
2021/07/15 05:52:43;;;;;;;0.87;0.60;;;18.10;99.90;;;;;;5063113;28;20695;-58
2021/07/15 05:55:09;;;;;;;0.80;0.60;;;18.10;99.90;;;;;;5059697;28;20685;-58
2021/07/15 05:57:35;;;;;;;0.80;0.60;;;18.20;99.90;;;;;;5056521;28;20253;-58
2021/07/15 06:00:03;;;;;;;0.70;0.50;;;18.20;99.90;;;;;;5056485;28;20204;-58
2021/07/15 06:02:29;;;;;;;0.80;0.70;;;18.30;99.90;;;;;;5058183;28;20192;-58
2021/07/15 06:04:54;;;;;;;1.73;1.03;;;18.40;99.90;;;;;;5061977;28;20185;-57
2021/07/15 06:07:20;;;;;;;1.03;0.70;;;18.60;99.90;;;;;;5056631;28;20654;-58
2021/07/15 06:09:46;;;;;;;3.90;0.90;;;18.60;99.90;;;;;;5057305;28;20730;-57
2021/07/15 06:12:11;;;;;;;1.10;0.90;;;18.60;99.90;;;;;;5056456;28;20569;-59
2021/07/15 06:14:37;;;;;;;2.40;0.60;;;18.60;99.90;;;;;;5058989;28;20311;-58
2021/07/15 06:17:03;;;;;;;1.37;0.60;;;18.60;99.90;;;;;;5055944;28;20215;-58
2021/07/15 06:19:29;;;;;;;1.00;0.70;;;18.60;99.90;;;;;;5058930;28;20587;-58
2021/07/15 06:21:55;;;;;;;2.00;0.50;;;18.60;99.90;;;;;;5063469;28;20192;-58
2021/07/15 06:24:21;;;;;;;1.20;0.80;;;18.60;99.90;;;;;;5058915;28;20185;-59
2021/07/15 06:26:48;;;;;;;2.20;1.20;;;18.50;99.90;;;;;;5065804;28;20196;-57
2021/07/15 06:29:14;;;;;;;3.30;1.00;;;18.50;99.90;;;;;;5055820;28;20623;-58
2021/07/15 06:31:40;;;;;;;4.85;0.98;;;18.30;99.90;;;;;;5055756;28;20239;-57
2021/07/15 06:34:05;;;;;;;0.80;0.70;;;18.60;99.90;;;;;;5062773;28;20189;-58
2021/07/15 06:36:32;;;;;;;1.10;0.70;;;18.70;99.90;;;;;;5064989;28;20812;-58
2021/07/15 06:38:58;;;;;;;0.70;0.60;;;18.90;99.90;;;;;;5054975;28;20759;-56
2021/07/15 06:41:25;;;;;;;2.78;0.60;;;18.90;99.90;;;;;;5058558;28;20212;-57
2021/07/15 06:43:50;;;;;;;1.17;0.47;;;19.00;99.90;;;;;;5061266;28;20242;-58
2021/07/15 06:46:17;;;;;;;1.83;1.00;;;19.20;99.90;;;;;;5069122;28;20204;-57
2021/07/15 06:48:42;;;;;;;0.60;0.43;;;19.20;99.90;;;;;;5059001;28;20189;-57
2021/07/15 06:51:08;;;;;;;1.83;0.80;;;19.40;99.90;;;;;;5063997;28;20181;-57
2021/07/15 06:53:34;;;;;;;0.80;0.63;;;19.50;99.90;;;;;;5059101;28;20757;-58
2021/07/15 06:56:00;;;;;;;2.90;1.00;;;19.50;99.90;;;;;;5059356;28;20440;-57
2021/07/15 06:58:27;;;;;;;1.38;1.27;;;19.60;99.90;;;;;;5062422;28;20444;-56
2021/07/15 07:00:57;;;;;;;1.05;0.60;;;19.50;99.90;;;;;;5062738;28;20201;-56
2021/07/15 07:03:23;;;;;;;0.90;0.50;;;19.60;99.90;;;;;;5057223;28;20181;-58
2021/07/15 07:05:51;;;;;;;3.38;2.85;;;19.60;99.90;;;;;;5062946;28;20341;-58
2021/07/15 07:08:16;;;;;;;1.65;0.75;;;19.40;99.90;;;;;;5061101;28;20185;-57
2021/07/15 07:10:42;;;;;;;2.83;1.50;;;19.20;99.90;;;;;;5057480;28;20692;-59
2021/07/15 07:13:08;;;;;;;1.48;1.17;;;19.40;99.90;;;;;;5063870;28;20196;-58
2021/07/15 07:15:34;;;;;;;3.10;1.27;;;19.30;99.90;;;;;;5060417;28;20509;-57
2021/07/15 07:18:00;;;;;;;0.90;0.70;;;19.40;99.90;;;;;;5061314;28;20689;-57
2021/07/15 07:20:25;;;;;;;1.63;0.70;;;19.30;99.90;;;;;;5069788;28;21199;-57
2021/07/15 07:22:51;;;;;;;2.23;0.70;;;19.20;99.90;;;;;;5064774;28;20273;-57
2021/07/15 07:25:18;;;;;;;1.30;0.60;;;19.30;99.90;;;;;;5068337;28;20215;-59
2021/07/15 07:27:44;;;;;;;2.15;0.90;;;19.50;99.90;;;;;;5067193;28;20330;-58
2021/07/15 07:30:13;;;;;;;0.80;0.50;;;19.60;99.90;;;;;;5063309;28;20206;-57
2021/07/15 07:32:39;;;;;;;1.42;0.70;;;19.80;99.90;;;;;;5058468;28;20267;-57
2021/07/15 07:35:05;;;;;;;1.67;1.30;;;20.00;99.90;;;;;;5057985;28;20468;-58
2021/07/15 07:37:33;;;;;;;0.75;0.70;;;20.10;99.90;;;;;;5058438;28;20292;-57
2021/07/15 07:39:59;;;;;;;0.90;0.65;;;20.20;99.90;;;;;;5060089;28;20351;-58
2021/07/15 07:42:25;;;;;;;0.70;0.50;;;20.00;99.90;;;;;;5056313;28;20196;-58
2021/07/15 07:44:51;;;;;;;0.75;0.50;;;20.00;99.90;;;;;;5061937;28;20295;-58
2021/07/15 07:47:17;;;;;;;2.37;1.13;;;20.30;99.90;;;;;;5060953;28;20268;-57
2021/07/15 07:49:42;;;;;;;0.60;0.50;;;20.60;99.90;;;;;;5052031;28;20204;-58
2021/07/15 07:52:08;;;;;;;1.23;0.60;;;21.20;99.90;;;;;;5056153;28;20694;-56
2021/07/15 07:54:33;;;;;;;0.70;0.50;;;21.70;99.90;;;;;;5062197;28;20185;-58
2021/07/15 07:56:59;;;;;;;0.70;0.50;;;22.10;99.90;;;;;;5052813;28;20239;-57
2021/07/15 07:59:25;;;;;;;1.37;0.60;;;21.90;99.90;;;;;;5057700;28;20209;-57
2021/07/15 08:01:51;;;;;;;1.80;0.80;;;21.60;99.90;;;;;;5065806;28;20469;-57
2021/07/15 08:04:16;;;;;;;0.80;0.70;;;21.60;99.90;;;;;;5059190;28;20212;-58
2021/07/15 08:06:42;;;;;;;1.53;0.60;;;21.30;99.90;;;;;;5066009;28;20217;-58
2021/07/15 08:09:15;;;;;;;0.95;0.70;;;21.40;99.90;;;;;;5057111;28;20204;-56
2021/07/15 08:11:44;;;;;;;1.73;0.60;;;21.40;99.90;;;;;;5060986;28;20181;-56
2021/07/15 08:14:10;;;;;;;1.00;0.70;;;21.30;99.90;;;;;;5061854;28;20658;-58
2021/07/15 08:16:35;;;;;;;2.73;1.10;;;21.20;99.90;;;;;;5061825;28;20189;-58
2021/07/15 08:19:01;;;;;;;1.20;0.90;;;21.10;99.90;;;;;;5064370;28;20689;-59
2021/07/15 08:21:26;;;;;;;1.33;0.70;;;21.00;99.90;;;;;;5056786;28;20188;-57
2021/07/15 08:23:52;;;;;;;4.53;0.77;;;20.80;99.90;;;;;;5067162;28;20196;-59
2021/07/15 08:26:18;;;;;;;1.80;1.03;;;20.90;99.90;;;;;;5064033;28;20203;-57
2021/07/15 08:28:45;;;;;;;0.80;0.70;;;20.90;99.90;;;;;;5061052;28;20895;-57
2021/07/15 08:31:10;;;;;;;0.70;0.70;;;20.70;99.90;;;;;;5060953;28;20209;-57
2021/07/15 08:33:36;;;;;;;1.13;0.60;;;20.80;99.90;;;;;;5055175;28;20216;-58
2021/07/15 08:36:03;;;;;;;2.70;1.30;;;20.80;99.90;;;;;;5059426;28;20765;-58
2021/07/15 08:38:29;;;;;;;0.90;0.90;;;20.60;99.90;;;;;;5062683;28;20276;-57
2021/07/15 08:40:55;;;;;;;1.40;1.23;;;20.60;99.90;;;;;;5058929;28;20303;-58
2021/07/15 08:43:22;;;;;;;2.83;1.13;;;20.60;99.90;;;;;;5058595;28;20233;-56
2021/07/15 08:45:49;;;;;;;4.40;0.82;;;20.60;99.90;;;;;;5062340;28;20204;-57
2021/07/15 08:48:15;;;;;;;7.82;1.00;;;20.60;99.90;;;;;;5062113;28;20268;-57
2021/07/15 08:50:41;;;;;;;1.17;1.08;;;20.60;99.90;;;;;;5059956;28;20207;-57
2021/07/15 08:53:07;;;;;;;4.20;1.53;;;20.60;99.90;;;;;;5060706;28;20178;-58
2021/07/15 08:58:13;;;;;;;2.05;0.98;;;20.60;99.90;;;;;;5060747;28;20186;-58
2021/07/15 09:00:39;;;;;;;1.60;0.90;;;20.50;99.90;;;;;;5060237;28;20205;-57
2021/07/15 09:03:05;;;;;;;6.97;6.23;;;20.60;99.90;;;;;;5055690;28;20207;-58
2021/07/15 09:05:31;;;;;;;1.00;0.90;;;20.60;99.90;;;;;;5055857;28;20464;-57
2021/07/15 09:07:56;;;;;;;2.20;1.13;;;20.20;99.90;;;;;;5057063;28;20227;-57
2021/07/15 09:10:22;;;;;;;1.03;0.93;;;20.20;99.90;;;;;;5059469;28;20639;-57
2021/07/15 09:12:47;;;;;;;2.17;1.00;;;20.40;99.90;;;;;;5055091;28;20189;-59
2021/07/15 09:15:14;;;;;;;1.43;0.80;;;20.30;99.90;;;;;;5060769;28;20184;-58
2021/07/15 09:17:40;;;;;;;1.65;1.02;;;20.40;99.90;;;;;;5058977;28;20595;-58
2021/07/15 09:20:09;;;;;;;1.70;0.70;;;20.40;99.90;;;;;;5054483;28;20232;-57
2021/07/15 09:22:52;;;;;;;0.98;0.70;;;20.30;99.90;;;;;;5066811;28;20672;-58
2021/07/15 09:25:18;;;;;;;10.70;5.05;;;20.40;99.90;;;;;;5061594;28;20197;-57
2021/07/15 09:27:49;;;;;;;4.10;2.40;;;20.20;99.90;;;;;;5065001;28;20192;-57
2021/07/15 09:30:16;;;;;;;0.90;0.70;;;20.70;99.90;;;;;;5056564;28;20684;-57
2021/07/15 09:32:59;;;;;;;2.10;0.77;;;20.90;99.90;;;;;;5064823;28;20184;-57
2021/07/15 09:35:47;;;;;;;0.90;0.60;;;20.70;99.90;;;;;;5059298;28;20197;-57
2021/07/15 09:38:17;;;;;;;0.80;0.70;;;20.60;99.90;;;;;;5061252;28;20260;-57
2021/07/15 09:40:50;;;;;;;1.50;0.90;;;20.30;99.90;;;;;;5056649;28;20693;-56
2021/07/15 09:43:23;;;;;;;1.08;0.88;;;20.20;99.90;;;;;;5063970;28;20190;-57
2021/07/15 09:45:54;;;;;;;1.65;0.80;;;20.30;99.90;;;;;;5051164;28;20311;-57
2021/07/15 09:48:30;;;;;;;1.00;0.80;;;20.30;99.90;;;;;;5058090;28;20236;-57
2021/07/15 09:50:58;;;;;;;1.17;0.90;;;20.70;99.90;;;;;;5059496;28;20197;-56
2021/07/15 09:53:33;;;;;;;1.40;0.88;;;21.10;99.90;;;;;;5061171;28;20647;-57
2021/07/15 09:55:58;;;;;;;1.55;0.70;;;21.40;99.90;;;;;;5052052;28;20290;-56
2021/07/15 09:58:25;;;;;;;1.40;1.00;;;21.50;99.90;;;;;;5062309;28;20613;-58
2021/07/15 10:00:51;;;;;;;1.50;0.70;;;21.70;99.90;;;;;;5061051;28;20209;-57
2021/07/15 10:03:17;;;;;;;4.47;2.92;;;21.60;99.90;;;;;;5064337;28;20192;-57
2021/07/15 10:05:52;;;;;;;1.63;0.95;;;21.60;99.90;;;;;;5054518;28;20231;-56
2021/07/15 10:08:33;;;;;;;1.52;1.10;;;21.30;99.90;;;;;;5053545;28;20617;-57
2021/07/15 10:11:18;;;;;;;4.60;4.15;;;20.80;99.90;;;;;;5054121;28;20209;-57
2021/07/15 10:14:06;;;;;;;2.40;2.20;;;20.60;99.90;;;;;;5063530;28;20231;-57
2021/07/15 10:16:33;;;;;;;3.33;1.35;;;20.80;99.90;;;;;;5063285;28;20185;-57
2021/07/15 10:19:00;;;;;;;1.90;1.70;;;21.10;99.90;;;;;;5058827;28;20218;-58
2021/07/15 10:21:29;;;;;;;1.20;1.10;;;22.30;99.90;;;;;;5065620;28;20180;-58
2021/07/15 10:23:56;;;;;;;3.00;1.30;;;23.30;99.90;;;;;;5062348;28;20442;-57
2021/07/15 10:26:22;;;;;;;2.13;0.90;;;23.40;99.90;;;;;;5061516;28;20803;-58
2021/07/15 10:28:50;;;;;;;1.77;0.97;;;22.90;99.90;;;;;;5061812;28;20471;-57
2021/07/15 10:31:19;;;;;;;2.57;1.30;;;22.10;99.90;;;;;;5064439;28;20460;-59
2021/07/15 10:33:46;;;;;;;2.65;1.30;;;22.20;99.90;;;;;;5061948;28;20454;-58
2021/07/15 10:36:12;;;;;;;1.20;1.10;;;22.10;99.90;;;;;;5061016;28;20199;-58
2021/07/15 10:38:41;;;;;;;2.50;1.95;;;21.80;99.90;;;;;;5066573;28;20181;-58
2021/07/15 10:41:08;;;;;;;2.08;1.88;;;21.40;99.90;;;;;;5058904;28;20178;-57
2021/07/15 10:43:35;;;;;;;1.80;1.10;;;21.40;99.90;;;;;;5061361;28;20185;-58
2021/07/15 10:46:04;;;;;;;1.48;1.38;;;21.20;99.90;;;;;;5063654;28;20568;-58
2021/07/15 10:48:32;;;;;;;1.33;1.20;;;21.30;99.90;;;;;;5060764;28;20174;-57
2021/07/15 10:51:00;;;;;;;1.50;0.98;;;21.50;99.90;;;;;;5062810;28;20271;-57
2021/07/15 10:53:29;;;;;;;2.72;0.95;;;21.50;99.90;;;;;;5065857;28;20218;-58
2021/07/15 10:55:55;;;;;;;1.30;1.08;;;21.40;99.90;;;;;;5057193;28;20173;-57
2021/07/15 10:58:53;;;;;;;3.42;1.45;;;21.30;99.90;;;;;;5060938;28;20184;-58
2021/07/15 11:01:32;;;;;;;7.28;1.42;;;21.20;99.90;;;;;;5050972;28;20285;-58
2021/07/15 11:04:06;;;;;;;2.67;1.30;;;21.10;99.90;;;;;;5055151;28;20231;-58
2021/07/15 11:06:41;;;;;;;1.77;1.17;;;21.20;99.90;;;;;;5055203;28;20212;-58
2021/07/15 11:09:10;;;;;;;1.75;1.20;;;21.50;99.90;;;;;;5058260;28;20243;-59
2021/07/15 11:11:43;;;;;;;2.20;1.17;;;21.70;99.90;;;;;;5064844;28;20250;-58
2021/07/15 11:14:38;;;;;;;1.40;0.98;;;22.10;99.90;;;;;;5058922;28;20489;-59
2021/07/15 11:17:33;;;;;;;2.03;1.92;;;22.10;99.90;;;;;;5051456;28;20191;-57
2021/07/15 11:20:03;;;;;;;2.75;1.10;;;22.00;99.90;;;;;;5054928;28;20206;-58
2021/07/15 11:22:42;;;;;;;1.27;1.17;;;22.20;99.90;;;;;;5057500;28;20201;-57
2021/07/15 11:25:18;;;;;;;1.20;0.80;;;22.50;99.90;;;;;;5057863;28;20591;-58
2021/07/15 11:27:50;;;;;;;0.80;0.80;;;22.20;99.90;;;;;;5058103;28;20459;-58
2021/07/15 11:30:30;;;;;;;1.50;1.40;;;22.40;99.90;;;;;;5061723;28;20746;-58
2021/07/15 11:33:22;;;;;;;1.10;0.93;;;22.40;99.90;;;;;;5061429;28;20178;-59
2021/07/15 11:35:52;;;;;;;1.10;1.00;;;22.60;99.90;;;;;;5053581;28;20917;-57
2021/07/15 11:38:26;;;;;;;1.10;0.70;;;22.50;99.90;;;;;;5059386;28;20508;-57
2021/07/15 11:40:52;;;;;;;1.20;1.10;;;22.70;99.90;;;;;;5062295;28;20224;-57
2021/07/15 11:43:22;;;;;;;1.43;1.00;;;22.80;99.90;;;;;;5060652;28;20840;-57
2021/07/15 11:46:06;;;;;;;0.93;0.80;;;22.60;99.90;;;;;;5057143;28;20467;-57
2021/07/15 11:48:49;;;;;;;0.80;0.80;;;23.00;99.90;;;;;;5062887;28;20430;-56
2021/07/15 11:51:38;;;;;;;1.63;0.97;;;23.00;99.90;;;;;;5061876;28;20277;-58
2021/07/15 11:54:18;;;;;;;1.23;1.13;;;22.60;99.90;;;;;;5057505;28;20439;-58
2021/07/15 11:56:55;;;;;;;1.20;1.10;;;22.90;99.90;;;;;;5055694;28;20793;-58
2021/07/15 11:59:37;;;;;;;1.07;0.97;;;23.20;99.90;;;;;;5053520;28;20490;-58
2021/07/15 12:02:03;;;;;;;1.57;1.30;;;22.90;99.90;;;;;;5059550;28;20442;-58
2021/07/15 12:05:12;;;;;;;1.87;0.90;;;23.00;99.90;;;;;;5055246;28;20796;-57
2021/07/15 12:07:42;;;;;;;1.10;0.90;;;22.50;99.90;;;;;;5041957;28;20216;-58
2021/07/15 12:10:11;;;;;;;1.30;1.20;;;22.50;99.90;;;;;;5064363;28;20458;-58
2021/07/15 12:12:38;;;;;;;1.30;0.80;;;22.50;99.90;;;;;;5060982;28;20431;-58
2021/07/15 12:15:05;;;;;;;2.00;1.00;;;22.10;99.90;;;;;;5059142;28;20935;-58
2021/07/15 12:17:33;;;;;;;0.93;0.70;;;22.00;99.90;;;;;;5064849;28;20424;-58
2021/07/15 12:20:00;;;;;;;1.50;0.95;;;21.80;99.90;;;;;;5058489;28;20263;-58
2021/07/15 12:22:43;;;;;;;1.00;0.88;;;21.50;99.90;;;;;;5063105;28;20178;-58
2021/07/15 12:25:10;;;;;;;1.35;0.70;;;21.60;99.90;;;;;;5065647;28;20267;-57
2021/07/15 12:27:44;;;;;;;0.90;0.90;;;21.50;99.90;;;;;;5060109;28;20642;-58
2021/07/15 12:30:10;;;;;;;2.75;1.10;;;21.60;99.90;;;;;;5055942;28;20692;-58
2021/07/15 12:32:37;;;;;;;0.75;0.75;;;21.60;99.90;;;;;;5059101;28;20182;-58
2021/07/15 12:35:13;;;;;;;0.70;0.70;;;21.80;99.90;;;;;;5061990;28;20226;-58
2021/07/15 12:37:39;;;;;;;1.10;0.93;;;21.80;99.90;;;;;;5053993;28;20177;-58
2021/07/15 12:40:07;;;;;;;1.00;0.90;;;21.90;99.90;;;;;;5059370;28;20307;-58
2021/07/15 12:42:34;;;;;;;1.73;0.90;;;22.10;99.90;;;;;;5062687;28;20181;-58
2021/07/15 12:45:16;;;;;;;1.05;0.80;;;22.20;99.90;;;;;;5052665;28;20177;-58
2021/07/15 12:48:00;;;;;;;1.75;1.00;;;22.10;99.90;;;;;;5059067;28;20642;-59
2021/07/15 12:50:27;;;;;;;1.70;1.60;;;22.30;99.90;;;;;;5057931;28;20727;-58
2021/07/15 12:53:12;;;;;;;1.40;1.30;;;22.30;99.90;;;;;;5066037;28;20189;-58
2021/07/15 12:55:40;;;;;;;1.10;0.80;;;22.50;99.90;;;;;;5060158;28;20196;-58
2021/07/15 12:58:06;;;;;;;1.57;0.97;;;22.50;99.90;;;;;;5055586;28;20216;-59
2021/07/15 13:00:36;;;;;;;1.23;0.80;;;22.60;99.90;;;;;;5056171;28;20972;-58
2021/07/15 13:03:03;;;;;;;1.10;0.90;;;22.90;99.90;;;;;;5061768;28;20946;-58